sensor_id;sensor_type;location;lat;lon;timestamp;P1;durP1;ratioP1;P2;durP2;ratioP2
22429;SDS011;11382;48.086;11.632;2023-04-03T00:01:11;18.98;;;12.70;;
22429;SDS011;11382;48.086;11.632;2023-04-03T00:03:38;18.20;;;11.95;;
22429;SDS011;11382;48.086;11.632;2023-04-03T00:06:07;22.85;;;12.82;;
22429;SDS011;11382;48.086;11.632;2023-04-03T00:08:37;19.17;;;12.98;;
22429;SDS011;11382;48.086;11.632;2023-04-03T00:11:07;18.02;;;12.20;;
22429;SDS011;11382;48.086;11.632;2023-04-03T00:13:36;19.02;;;12.43;;
22429;SDS011;11382;48.086;11.632;2023-04-03T00:16:05;20.35;;;12.18;;
22429;SDS011;11382;48.086;11.632;2023-04-03T00:18:36;17.48;;;12.02;;
22429;SDS011;11382;48.086;11.632;2023-04-03T00:21:05;17.30;;;11.90;;
22429;SDS011;11382;48.086;11.632;2023-04-03T00:23:34;19.75;;;12.13;;
22429;SDS011;11382;48.086;11.632;2023-04-03T00:26:02;18.02;;;12.32;;
22429;SDS011;11382;48.086;11.632;2023-04-03T00:28:31;18.88;;;12.27;;
22429;SDS011;11382;48.086;11.632;2023-04-03T00:30:59;18.05;;;12.18;;
22429;SDS011;11382;48.086;11.632;2023-04-03T00:33:27;17.05;;;11.13;;
22429;SDS011;11382;48.086;11.632;2023-04-03T00:35:56;18.23;;;11.50;;
22429;SDS011;11382;48.086;11.632;2023-04-03T00:38:24;17.42;;;12.32;;
22429;SDS011;11382;48.086;11.632;2023-04-03T00:40:52;19.83;;;12.00;;
22429;SDS011;11382;48.086;11.632;2023-04-03T00:43:21;16.85;;;12.13;;
22429;SDS011;11382;48.086;11.632;2023-04-03T00:45:50;19.25;;;11.90;;
22429;SDS011;11382;48.086;11.632;2023-04-03T00:48:20;18.65;;;10.40;;
22429;SDS011;11382;48.086;11.632;2023-04-03T00:50:52;19.52;;;11.70;;
22429;SDS011;11382;48.086;11.632;2023-04-03T00:53:22;16.02;;;10.48;;
22429;SDS011;11382;48.086;11.632;2023-04-03T00:55:53;15.43;;;10.57;;
22429;SDS011;11382;48.086;11.632;2023-04-03T00:58:25;15.48;;;10.27;;
22429;SDS011;11382;48.086;11.632;2023-04-03T01:00:58;14.48;;;10.45;;
22429;SDS011;11382;48.086;11.632;2023-04-03T01:03:27;16.27;;;11.13;;
22429;SDS011;11382;48.086;11.632;2023-04-03T01:05:59;15.93;;;11.82;;
22429;SDS011;11382;48.086;11.632;2023-04-03T01:08:29;17.38;;;12.05;;
22429;SDS011;11382;48.086;11.632;2023-04-03T01:10:57;14.80;;;10.43;;
22429;SDS011;11382;48.086;11.632;2023-04-03T01:13:28;15.35;;;10.07;;
22429;SDS011;11382;48.086;11.632;2023-04-03T01:16:00;15.88;;;10.30;;
22429;SDS011;11382;48.086;11.632;2023-04-03T01:18:28;18.17;;;12.07;;
22429;SDS011;11382;48.086;11.632;2023-04-03T01:24:15;15.63;;;10.75;;
22429;SDS011;11382;48.086;11.632;2023-04-03T01:26:51;15.20;;;10.27;;
22429;SDS011;11382;48.086;11.632;2023-04-03T01:29:21;14.32;;;9.80;;
22429;SDS011;11382;48.086;11.632;2023-04-03T01:31:53;13.85;;;10.10;;
22429;SDS011;11382;48.086;11.632;2023-04-03T01:34:23;13.90;;;10.02;;
22429;SDS011;11382;48.086;11.632;2023-04-03T01:36:52;13.63;;;9.73;;
22429;SDS011;11382;48.086;11.632;2023-04-03T01:39:21;14.75;;;10.18;;
22429;SDS011;11382;48.086;11.632;2023-04-03T01:41:50;15.07;;;10.07;;
22429;SDS011;11382;48.086;11.632;2023-04-03T01:44:25;14.68;;;9.55;;
22429;SDS011;11382;48.086;11.632;2023-04-03T01:46:54;15.48;;;10.18;;
22429;SDS011;11382;48.086;11.632;2023-04-03T01:49:24;15.88;;;10.32;;
22429;SDS011;11382;48.086;11.632;2023-04-03T01:51:53;17.50;;;10.43;;
22429;SDS011;11382;48.086;11.632;2023-04-03T01:54:21;16.80;;;10.50;;
22429;SDS011;11382;48.086;11.632;2023-04-03T01:56:50;15.70;;;10.52;;
22429;SDS011;11382;48.086;11.632;2023-04-03T01:59:20;15.40;;;10.05;;
22429;SDS011;11382;48.086;11.632;2023-04-03T02:01:48;14.73;;;10.45;;
22429;SDS011;11382;48.086;11.632;2023-04-03T02:04:17;18.55;;;11.23;;
22429;SDS011;11382;48.086;11.632;2023-04-03T02:06:45;15.35;;;10.55;;
22429;SDS011;11382;48.086;11.632;2023-04-03T02:09:13;15.30;;;10.07;;
22429;SDS011;11382;48.086;11.632;2023-04-03T02:11:41;16.02;;;9.80;;
22429;SDS011;11382;48.086;11.632;2023-04-03T02:14:10;13.70;;;9.80;;
22429;SDS011;11382;48.086;11.632;2023-04-03T02:16:38;14.98;;;9.98;;
22429;SDS011;11382;48.086;11.632;2023-04-03T02:19:06;14.88;;;10.18;;
22429;SDS011;11382;48.086;11.632;2023-04-03T02:21:35;19.17;;;10.13;;
22429;SDS011;11382;48.086;11.632;2023-04-03T02:24:03;13.93;;;10.30;;
22429;SDS011;11382;48.086;11.632;2023-04-03T02:26:33;15.02;;;9.95;;
22429;SDS011;11382;48.086;11.632;2023-04-03T02:29:01;14.32;;;9.50;;
22429;SDS011;11382;48.086;11.632;2023-04-03T02:31:30;14.95;;;10.05;;
22429;SDS011;11382;48.086;11.632;2023-04-03T02:34:00;15.25;;;10.45;;
22429;SDS011;11382;48.086;11.632;2023-04-03T02:36:28;15.73;;;9.85;;
22429;SDS011;11382;48.086;11.632;2023-04-03T02:41:31;13.68;;;10.10;;
22429;SDS011;11382;48.086;11.632;2023-04-03T02:44:05;14.02;;;9.75;;
22429;SDS011;11382;48.086;11.632;2023-04-03T02:46:34;13.13;;;9.15;;
22429;SDS011;11382;48.086;11.632;2023-04-03T02:49:02;13.32;;;9.20;;
22429;SDS011;11382;48.086;11.632;2023-04-03T02:51:31;14.52;;;9.27;;
22429;SDS011;11382;48.086;11.632;2023-04-03T02:53:59;12.15;;;8.80;;
22429;SDS011;11382;48.086;11.632;2023-04-03T02:56:35;12.27;;;9.13;;
22429;SDS011;11382;48.086;11.632;2023-04-03T02:59:03;14.18;;;9.00;;
22429;SDS011;11382;48.086;11.632;2023-04-03T03:01:33;15.15;;;9.13;;
22429;SDS011;11382;48.086;11.632;2023-04-03T03:04:02;14.73;;;8.88;;
22429;SDS011;11382;48.086;11.632;2023-04-03T03:06:30;14.23;;;8.52;;
22429;SDS011;11382;48.086;11.632;2023-04-03T03:08:58;12.05;;;9.23;;
22429;SDS011;11382;48.086;11.632;2023-04-03T03:11:26;12.60;;;8.75;;
22429;SDS011;11382;48.086;11.632;2023-04-03T03:13:57;13.20;;;8.90;;
22429;SDS011;11382;48.086;11.632;2023-04-03T03:16:25;11.30;;;8.52;;
22429;SDS011;11382;48.086;11.632;2023-04-03T03:18:55;11.95;;;8.40;;
22429;SDS011;11382;48.086;11.632;2023-04-03T03:21:24;11.30;;;8.13;;
22429;SDS011;11382;48.086;11.632;2023-04-03T03:23:52;12.15;;;8.15;;
22429;SDS011;11382;48.086;11.632;2023-04-03T03:26:21;10.65;;;7.80;;
22429;SDS011;11382;48.086;11.632;2023-04-03T03:28:49;9.65;;;7.32;;
22429;SDS011;11382;48.086;11.632;2023-04-03T03:31:19;10.55;;;6.80;;
22429;SDS011;11382;48.086;11.632;2023-04-03T03:33:48;9.90;;;7.45;;
22429;SDS011;11382;48.086;11.632;2023-04-03T03:36:16;10.77;;;7.15;;
22429;SDS011;11382;48.086;11.632;2023-04-03T03:38:44;9.32;;;6.65;;
22429;SDS011;11382;48.086;11.632;2023-04-03T03:41:12;9.95;;;7.13;;
22429;SDS011;11382;48.086;11.632;2023-04-03T03:43:42;13.02;;;6.18;;
22429;SDS011;11382;48.086;11.632;2023-04-03T03:46:13;8.10;;;6.20;;
22429;SDS011;11382;48.086;11.632;2023-04-03T03:48:42;9.50;;;6.63;;
22429;SDS011;11382;48.086;11.632;2023-04-03T03:51:10;9.20;;;6.60;;
22429;SDS011;11382;48.086;11.632;2023-04-03T03:53:38;7.65;;;5.50;;
22429;SDS011;11382;48.086;11.632;2023-04-03T03:58:40;8.68;;;5.72;;
22429;SDS011;11382;48.086;11.632;2023-04-03T04:01:08;8.15;;;5.97;;
22429;SDS011;11382;48.086;11.632;2023-04-03T04:03:45;8.25;;;5.82;;
22429;SDS011;11382;48.086;11.632;2023-04-03T04:06:18;7.63;;;6.07;;
22429;SDS011;11382;48.086;11.632;2023-04-03T04:08:47;6.68;;;5.60;;
22429;SDS011;11382;48.086;11.632;2023-04-03T04:11:15;8.52;;;5.57;;
22429;SDS011;11382;48.086;11.632;2023-04-03T04:13:45;7.45;;;5.72;;
22429;SDS011;11382;48.086;11.632;2023-04-03T04:16:15;7.05;;;5.35;;
22429;SDS011;11382;48.086;11.632;2023-04-03T04:18:43;7.90;;;5.20;;
22429;SDS011;11382;48.086;11.632;2023-04-03T04:21:13;9.23;;;5.82;;
22429;SDS011;11382;48.086;11.632;2023-04-03T04:23:43;6.70;;;5.20;;
22429;SDS011;11382;48.086;11.632;2023-04-03T04:26:12;7.80;;;5.38;;
22429;SDS011;11382;48.086;11.632;2023-04-03T04:28:42;6.88;;;5.22;;
22429;SDS011;11382;48.086;11.632;2023-04-03T04:31:10;8.43;;;5.28;;
22429;SDS011;11382;48.086;11.632;2023-04-03T04:33:38;6.72;;;5.38;;
22429;SDS011;11382;48.086;11.632;2023-04-03T04:36:11;6.72;;;5.57;;
22429;SDS011;11382;48.086;11.632;2023-04-03T04:38:41;7.40;;;5.60;;
22429;SDS011;11382;48.086;11.632;2023-04-03T04:41:09;6.55;;;5.35;;
22429;SDS011;11382;48.086;11.632;2023-04-03T04:43:37;7.93;;;5.28;;
22429;SDS011;11382;48.086;11.632;2023-04-03T04:46:06;8.27;;;5.35;;
22429;SDS011;11382;48.086;11.632;2023-04-03T04:48:41;8.88;;;5.72;;
22429;SDS011;11382;48.086;11.632;2023-04-03T04:51:11;5.57;;;4.95;;
22429;SDS011;11382;48.086;11.632;2023-04-03T04:53:40;8.02;;;5.20;;
22429;SDS011;11382;48.086;11.632;2023-04-03T04:56:11;8.55;;;5.25;;
22429;SDS011;11382;48.086;11.632;2023-04-03T04:58:41;6.75;;;5.45;;
22429;SDS011;11382;48.086;11.632;2023-04-03T05:01:09;7.13;;;5.50;;
22429;SDS011;11382;48.086;11.632;2023-04-03T05:03:57;9.65;;;5.85;;
22429;SDS011;11382;48.086;11.632;2023-04-03T05:06:26;6.55;;;5.32;;
22429;SDS011;11382;48.086;11.632;2023-04-03T05:08:56;8.60;;;6.07;;
22429;SDS011;11382;48.086;11.632;2023-04-03T05:11:24;5.45;;;4.70;;
22429;SDS011;11382;48.086;11.632;2023-04-03T05:13:54;5.55;;;4.53;;
22429;SDS011;11382;48.086;11.632;2023-04-03T05:16:23;6.75;;;5.13;;
22429;SDS011;11382;48.086;11.632;2023-04-03T05:18:52;8.05;;;5.63;;
22429;SDS011;11382;48.086;11.632;2023-04-03T05:21:21;8.15;;;5.45;;
22429;SDS011;11382;48.086;11.632;2023-04-03T05:23:53;6.45;;;5.13;;
22429;SDS011;11382;48.086;11.632;2023-04-03T05:26:21;6.40;;;4.57;;
22429;SDS011;11382;48.086;11.632;2023-04-03T05:28:50;6.60;;;4.95;;
22429;SDS011;11382;48.086;11.632;2023-04-03T05:31:19;8.32;;;5.57;;
22429;SDS011;11382;48.086;11.632;2023-04-03T05:33:48;7.35;;;4.90;;
22429;SDS011;11382;48.086;11.632;2023-04-03T05:36:17;6.55;;;5.45;;
22429;SDS011;11382;48.086;11.632;2023-04-03T05:38:51;5.72;;;4.50;;
22429;SDS011;11382;48.086;11.632;2023-04-03T05:41:23;9.15;;;5.35;;
22429;SDS011;11382;48.086;11.632;2023-04-03T05:43:51;5.55;;;4.70;;
22429;SDS011;11382;48.086;11.632;2023-04-03T05:46:22;6.53;;;5.13;;
22429;SDS011;11382;48.086;11.632;2023-04-03T05:48:53;5.95;;;4.60;;
22429;SDS011;11382;48.086;11.632;2023-04-03T05:51:25;9.43;;;5.15;;
22429;SDS011;11382;48.086;11.632;2023-04-03T05:54:03;8.15;;;5.03;;
22429;SDS011;11382;48.086;11.632;2023-04-03T05:56:37;7.63;;;5.45;;
22429;SDS011;11382;48.086;11.632;2023-04-03T05:59:06;6.35;;;4.80;;
22429;SDS011;11382;48.086;11.632;2023-04-03T06:01:36;6.85;;;4.55;;
22429;SDS011;11382;48.086;11.632;2023-04-03T06:04:04;6.03;;;4.75;;
22429;SDS011;11382;48.086;11.632;2023-04-03T06:06:43;6.78;;;5.03;;
22429;SDS011;11382;48.086;11.632;2023-04-03T06:09:14;6.10;;;4.43;;
22429;SDS011;11382;48.086;11.632;2023-04-03T06:11:44;5.38;;;3.95;;
22429;SDS011;11382;48.086;11.632;2023-04-03T06:14:13;5.88;;;4.57;;
22429;SDS011;11382;48.086;11.632;2023-04-03T06:16:41;6.97;;;4.80;;
22429;SDS011;11382;48.086;11.632;2023-04-03T06:19:10;5.88;;;4.47;;
22429;SDS011;11382;48.086;11.632;2023-04-03T06:21:44;6.38;;;4.95;;
22429;SDS011;11382;48.086;11.632;2023-04-03T06:24:13;7.35;;;4.50;;
22429;SDS011;11382;48.086;11.632;2023-04-03T06:26:42;7.25;;;4.18;;
22429;SDS011;11382;48.086;11.632;2023-04-03T06:29:12;4.47;;;3.75;;
22429;SDS011;11382;48.086;11.632;2023-04-03T06:31:41;7.25;;;3.90;;
22429;SDS011;11382;48.086;11.632;2023-04-03T06:34:09;6.68;;;4.50;;
22429;SDS011;11382;48.086;11.632;2023-04-03T06:36:39;5.68;;;4.35;;
22429;SDS011;11382;48.086;11.632;2023-04-03T06:39:08;5.20;;;4.10;;
22429;SDS011;11382;48.086;11.632;2023-04-03T06:41:36;5.22;;;4.07;;
22429;SDS011;11382;48.086;11.632;2023-04-03T06:44:05;7.20;;;4.47;;
22429;SDS011;11382;48.086;11.632;2023-04-03T06:46:37;7.53;;;4.40;;
22429;SDS011;11382;48.086;11.632;2023-04-03T06:49:05;5.32;;;3.95;;
22429;SDS011;11382;48.086;11.632;2023-04-03T06:51:35;6.03;;;4.05;;
22429;SDS011;11382;48.086;11.632;2023-04-03T06:54:04;6.95;;;4.25;;
22429;SDS011;11382;48.086;11.632;2023-04-03T06:56:33;6.75;;;4.25;;
22429;SDS011;11382;48.086;11.632;2023-04-03T06:59:01;7.32;;;4.57;;
22429;SDS011;11382;48.086;11.632;2023-04-03T07:01:30;6.45;;;4.10;;
22429;SDS011;11382;48.086;11.632;2023-04-03T07:03:59;5.82;;;4.40;;
22429;SDS011;11382;48.086;11.632;2023-04-03T07:06:27;4.47;;;3.53;;
22429;SDS011;11382;48.086;11.632;2023-04-03T07:08:55;6.03;;;3.63;;
22429;SDS011;11382;48.086;11.632;2023-04-03T07:11:23;6.18;;;3.85;;
22429;SDS011;11382;48.086;11.632;2023-04-03T07:13:52;5.15;;;3.67;;
22429;SDS011;11382;48.086;11.632;2023-04-03T07:16:21;5.55;;;3.78;;
22429;SDS011;11382;48.086;11.632;2023-04-03T07:18:51;7.00;;;4.15;;
22429;SDS011;11382;48.086;11.632;2023-04-03T07:21:19;6.07;;;4.28;;
22429;SDS011;11382;48.086;11.632;2023-04-03T07:23:47;5.57;;;4.00;;
22429;SDS011;11382;48.086;11.632;2023-04-03T07:26:15;5.28;;;3.85;;
22429;SDS011;11382;48.086;11.632;2023-04-03T07:28:43;5.75;;;4.15;;
22429;SDS011;11382;48.086;11.632;2023-04-03T07:31:14;6.13;;;3.95;;
22429;SDS011;11382;48.086;11.632;2023-04-03T07:33:43;7.18;;;4.28;;
22429;SDS011;11382;48.086;11.632;2023-04-03T07:36:15;5.53;;;4.03;;
22429;SDS011;11382;48.086;11.632;2023-04-03T07:38:44;6.40;;;4.30;;
22429;SDS011;11382;48.086;11.632;2023-04-03T07:41:13;6.97;;;4.40;;
22429;SDS011;11382;48.086;11.632;2023-04-03T07:43:43;6.25;;;4.60;;
22429;SDS011;11382;48.086;11.632;2023-04-03T07:46:12;7.05;;;4.10;;
22429;SDS011;11382;48.086;11.632;2023-04-03T07:48:40;5.93;;;3.80;;
22429;SDS011;11382;48.086;11.632;2023-04-03T07:51:09;6.68;;;4.18;;
22429;SDS011;11382;48.086;11.632;2023-04-03T07:53:38;5.97;;;4.05;;
22429;SDS011;11382;48.086;11.632;2023-04-03T07:56:06;7.43;;;4.88;;
22429;SDS011;11382;48.086;11.632;2023-04-03T07:58:35;8.43;;;4.50;;
22429;SDS011;11382;48.086;11.632;2023-04-03T08:01:05;5.65;;;4.03;;
22429;SDS011;11382;48.086;11.632;2023-04-03T08:03:33;6.43;;;4.03;;
22429;SDS011;11382;48.086;11.632;2023-04-03T08:06:03;7.63;;;4.38;;
22429;SDS011;11382;48.086;11.632;2023-04-03T08:08:42;6.15;;;3.65;;
22429;SDS011;11382;48.086;11.632;2023-04-03T08:11:10;4.70;;;4.00;;
22429;SDS011;11382;48.086;11.632;2023-04-03T08:13:38;5.47;;;4.00;;
22429;SDS011;11382;48.086;11.632;2023-04-03T08:16:09;6.38;;;4.25;;
22429;SDS011;11382;48.086;11.632;2023-04-03T08:18:38;7.22;;;4.30;;
22429;SDS011;11382;48.086;11.632;2023-04-03T08:21:07;6.35;;;4.10;;
22429;SDS011;11382;48.086;11.632;2023-04-03T08:23:37;7.25;;;4.50;;
22429;SDS011;11382;48.086;11.632;2023-04-03T08:26:09;7.63;;;4.47;;
22429;SDS011;11382;48.086;11.632;2023-04-03T08:28:39;6.05;;;4.93;;
22429;SDS011;11382;48.086;11.632;2023-04-03T08:31:09;7.35;;;4.97;;
22429;SDS011;11382;48.086;11.632;2023-04-03T08:33:38;6.10;;;4.40;;
22429;SDS011;11382;48.086;11.632;2023-04-03T08:36:07;5.93;;;4.35;;
22429;SDS011;11382;48.086;11.632;2023-04-03T08:38:43;6.70;;;4.90;;
22429;SDS011;11382;48.086;11.632;2023-04-03T08:41:14;7.72;;;4.97;;
22429;SDS011;11382;48.086;11.632;2023-04-03T08:43:55;6.30;;;4.43;;
22429;SDS011;11382;48.086;11.632;2023-04-03T08:46:33;7.75;;;4.60;;
22429;SDS011;11382;48.086;11.632;2023-04-03T08:49:10;5.93;;;4.18;;
22429;SDS011;11382;48.086;11.632;2023-04-03T08:51:41;6.32;;;3.45;;
22429;SDS011;11382;48.086;11.632;2023-04-03T08:54:20;6.32;;;5.05;;
22429;SDS011;11382;48.086;11.632;2023-04-03T08:56:54;8.65;;;5.18;;
22429;SDS011;11382;48.086;11.632;2023-04-03T08:59:24;7.55;;;4.40;;
22429;SDS011;11382;48.086;11.632;2023-04-03T09:01:57;9.63;;;4.88;;
22429;SDS011;11382;48.086;11.632;2023-04-03T09:04:28;6.38;;;4.57;;
22429;SDS011;11382;48.086;11.632;2023-04-03T09:07:00;6.88;;;4.63;;
22429;SDS011;11382;48.086;11.632;2023-04-03T09:09:35;5.75;;;4.53;;
22429;SDS011;11382;48.086;11.632;2023-04-03T09:12:12;7.72;;;4.80;;
22429;SDS011;11382;48.086;11.632;2023-04-03T09:14:46;7.03;;;4.80;;
22429;SDS011;11382;48.086;11.632;2023-04-03T09:17:27;6.13;;;4.68;;
22429;SDS011;11382;48.086;11.632;2023-04-03T09:20:13;7.03;;;5.10;;
22429;SDS011;11382;48.086;11.632;2023-04-03T09:22:47;6.05;;;4.60;;
22429;SDS011;11382;48.086;11.632;2023-04-03T09:25:19;5.85;;;4.15;;
22429;SDS011;11382;48.086;11.632;2023-04-03T09:27:51;5.50;;;4.05;;
22429;SDS011;11382;48.086;11.632;2023-04-03T09:30:19;4.97;;;3.90;;
22429;SDS011;11382;48.086;11.632;2023-04-03T09:32:50;7.05;;;4.13;;
22429;SDS011;11382;48.086;11.632;2023-04-03T09:35:20;5.82;;;4.30;;
22429;SDS011;11382;48.086;11.632;2023-04-03T09:38:14;6.80;;;4.10;;
22429;SDS011;11382;48.086;11.632;2023-04-03T09:40:44;6.90;;;4.63;;
22429;SDS011;11382;48.086;11.632;2023-04-03T09:43:23;5.40;;;4.13;;
22429;SDS011;11382;48.086;11.632;2023-04-03T09:45:54;5.20;;;3.80;;
22429;SDS011;11382;48.086;11.632;2023-04-03T09:48:25;5.57;;;4.35;;
22429;SDS011;11382;48.086;11.632;2023-04-03T09:50:58;5.13;;;4.18;;
22429;SDS011;11382;48.086;11.632;2023-04-03T09:53:29;5.25;;;4.00;;
22429;SDS011;11382;48.086;11.632;2023-04-03T09:56:03;6.63;;;4.28;;
22429;SDS011;11382;48.086;11.632;2023-04-03T09:58:48;9.32;;;4.10;;
22429;SDS011;11382;48.086;11.632;2023-04-03T10:01:20;5.68;;;4.22;;
22429;SDS011;11382;48.086;11.632;2023-04-03T10:04:03;5.55;;;4.00;;
22429;SDS011;11382;48.086;11.632;2023-04-03T10:06:34;5.90;;;4.20;;
22429;SDS011;11382;48.086;11.632;2023-04-03T10:09:04;6.00;;;4.20;;
22429;SDS011;11382;48.086;11.632;2023-04-03T10:11:33;5.53;;;3.72;;
22429;SDS011;11382;48.086;11.632;2023-04-03T10:14:03;6.05;;;3.63;;
22429;SDS011;11382;48.086;11.632;2023-04-03T10:16:35;5.23;;;3.90;;
22429;SDS011;11382;48.086;11.632;2023-04-03T10:22:11;6.05;;;3.40;;
22429;SDS011;11382;48.086;11.632;2023-04-03T10:24:48;4.60;;;3.30;;
22429;SDS011;11382;48.086;11.632;2023-04-03T10:27:22;4.93;;;3.50;;
22429;SDS011;11382;48.086;11.632;2023-04-03T10:30:21;3.42;;;3.00;;
22429;SDS011;11382;48.086;11.632;2023-04-03T10:33:06;4.22;;;3.20;;
22429;SDS011;11382;48.086;11.632;2023-04-03T10:35:49;3.53;;;3.08;;
22429;SDS011;11382;48.086;11.632;2023-04-03T10:38:30;3.78;;;3.33;;
22429;SDS011;11382;48.086;11.632;2023-04-03T10:41:07;6.57;;;3.50;;
22429;SDS011;11382;48.086;11.632;2023-04-03T10:43:44;4.43;;;3.90;;
22429;SDS011;11382;48.086;11.632;2023-04-03T10:46:23;4.10;;;3.47;;
22429;SDS011;11382;48.086;11.632;2023-04-03T10:49:01;5.93;;;4.10;;
22429;SDS011;11382;48.086;11.632;2023-04-03T10:51:41;5.63;;;3.90;;
22429;SDS011;11382;48.086;11.632;2023-04-03T10:54:12;4.85;;;4.03;;
22429;SDS011;11382;48.086;11.632;2023-04-03T10:56:47;6.95;;;4.50;;
22429;SDS011;11382;48.086;11.632;2023-04-03T10:59:36;6.95;;;4.18;;
22429;SDS011;11382;48.086;11.632;2023-04-03T11:02:13;5.93;;;4.47;;
22429;SDS011;11382;48.086;11.632;2023-04-03T11:04:50;5.38;;;4.00;;
22429;SDS011;11382;48.086;11.632;2023-04-03T11:07:20;7.85;;;3.97;;
22429;SDS011;11382;48.086;11.632;2023-04-03T11:09:52;4.43;;;3.88;;
22429;SDS011;11382;48.086;11.632;2023-04-03T11:12:26;6.82;;;4.30;;
22429;SDS011;11382;48.086;11.632;2023-04-03T11:14:58;6.30;;;4.43;;
22429;SDS011;11382;48.086;11.632;2023-04-03T11:17:33;6.05;;;4.40;;
22429;SDS011;11382;48.086;11.632;2023-04-03T11:20:08;4.72;;;4.00;;
22429;SDS011;11382;48.086;11.632;2023-04-03T11:22:45;4.25;;;3.47;;
22429;SDS011;11382;48.086;11.632;2023-04-03T11:25:19;4.70;;;3.40;;
22429;SDS011;11382;48.086;11.632;2023-04-03T11:27:49;4.10;;;3.10;;
22429;SDS011;11382;48.086;11.632;2023-04-03T11:33:00;3.22;;;2.53;;
22429;SDS011;11382;48.086;11.632;2023-04-03T11:35:37;7.30;;;3.10;;
22429;SDS011;11382;48.086;11.632;2023-04-03T11:38:13;3.83;;;2.65;;
22429;SDS011;11382;48.086;11.632;2023-04-03T11:40:48;4.50;;;2.88;;
22429;SDS011;11382;48.086;11.632;2023-04-03T11:43:20;6.60;;;2.30;;
22429;SDS011;11382;48.086;11.632;2023-04-03T11:45:55;3.90;;;2.83;;
22429;SDS011;11382;48.086;11.632;2023-04-03T11:48:48;5.25;;;3.00;;
22429;SDS011;11382;48.086;11.632;2023-04-03T12:09:24;4.63;;;2.65;;
22429;SDS011;11382;48.086;11.632;2023-04-03T12:11:55;3.93;;;2.70;;
22429;SDS011;11382;48.086;11.632;2023-04-03T12:14:24;6.50;;;2.67;;
22429;SDS011;11382;48.086;11.632;2023-04-03T12:16:53;4.32;;;2.58;;
22429;SDS011;11382;48.086;11.632;2023-04-03T12:19:29;3.95;;;2.88;;
22429;SDS011;11382;48.086;11.632;2023-04-03T12:22:13;4.50;;;2.17;;
22429;SDS011;11382;48.086;11.632;2023-04-03T12:24:44;4.38;;;2.33;;
22429;SDS011;11382;48.086;11.632;2023-04-03T12:27:25;3.13;;;1.80;;
22429;SDS011;11382;48.086;11.632;2023-04-03T12:29:56;2.30;;;1.80;;
22429;SDS011;11382;48.086;11.632;2023-04-03T12:32:35;5.70;;;2.50;;
22429;SDS011;11382;48.086;11.632;2023-04-03T12:35:26;4.35;;;2.40;;
22429;SDS011;11382;48.086;11.632;2023-04-03T12:41:07;5.38;;;2.30;;
22429;SDS011;11382;48.086;11.632;2023-04-03T12:43:55;3.15;;;2.20;;
22429;SDS011;11382;48.086;11.632;2023-04-03T12:46:34;4.10;;;2.20;;
22429;SDS011;11382;48.086;11.632;2023-04-03T12:49:12;2.88;;;1.95;;
22429;SDS011;11382;48.086;11.632;2023-04-03T12:51:50;6.97;;;2.13;;
22429;SDS011;11382;48.086;11.632;2023-04-03T12:54:18;3.38;;;2.15;;
22429;SDS011;11382;48.086;11.632;2023-04-03T12:56:51;3.40;;;2.25;;
22429;SDS011;11382;48.086;11.632;2023-04-03T12:59:35;4.18;;;2.20;;
22429;SDS011;11382;48.086;11.632;2023-04-03T13:02:10;2.83;;;2.00;;
22429;SDS011;11382;48.086;11.632;2023-04-03T13:04:52;2.85;;;2.33;;
22429;SDS011;11382;48.086;11.632;2023-04-03T13:07:24;2.28;;;1.67;;
22429;SDS011;11382;48.086;11.632;2023-04-03T13:09:57;2.35;;;1.55;;
22429;SDS011;11382;48.086;11.632;2023-04-03T13:12:28;4.43;;;1.75;;
22429;SDS011;11382;48.086;11.632;2023-04-03T13:14:58;3.22;;;2.17;;
22429;SDS011;11382;48.086;11.632;2023-04-03T13:17:30;4.63;;;2.30;;
22429;SDS011;11382;48.086;11.632;2023-04-03T13:20:09;3.80;;;2.70;;
22429;SDS011;11382;48.086;11.632;2023-04-03T13:22:39;5.03;;;2.05;;
22429;SDS011;11382;48.086;11.632;2023-04-03T13:25:14;3.83;;;2.25;;
22429;SDS011;11382;48.086;11.632;2023-04-03T13:27:46;3.35;;;1.75;;
22429;SDS011;11382;48.086;11.632;2023-04-03T13:30:22;4.25;;;1.70;;
22429;SDS011;11382;48.086;11.632;2023-04-03T13:32:53;2.08;;;1.75;;
22429;SDS011;11382;48.086;11.632;2023-04-03T13:35:30;4.05;;;1.80;;
22429;SDS011;11382;48.086;11.632;2023-04-03T13:38:02;3.55;;;2.20;;
22429;SDS011;11382;48.086;11.632;2023-04-03T13:40:32;2.80;;;1.60;;
22429;SDS011;11382;48.086;11.632;2023-04-03T13:43:18;2.47;;;1.60;;
22429;SDS011;11382;48.086;11.632;2023-04-03T13:45:55;3.50;;;1.75;;
22429;SDS011;11382;48.086;11.632;2023-04-03T13:48:26;3.10;;;1.95;;
22429;SDS011;11382;48.086;11.632;2023-04-03T13:50:59;3.25;;;1.92;;
22429;SDS011;11382;48.086;11.632;2023-04-03T13:53:31;4.50;;;1.80;;
22429;SDS011;11382;48.086;11.632;2023-04-03T13:56:05;2.58;;;1.90;;
22429;SDS011;11382;48.086;11.632;2023-04-03T13:58:36;3.05;;;1.60;;
22429;SDS011;11382;48.086;11.632;2023-04-03T14:01:10;2.47;;;1.50;;
22429;SDS011;11382;48.086;11.632;2023-04-03T14:03:45;2.00;;;1.70;;
22429;SDS011;11382;48.086;11.632;2023-04-03T14:06:18;2.22;;;1.73;;
22429;SDS011;11382;48.086;11.632;2023-04-03T14:08:48;2.55;;;1.60;;
22429;SDS011;11382;48.086;11.632;2023-04-03T14:11:17;2.15;;;1.45;;
22429;SDS011;11382;48.086;11.632;2023-04-03T14:13:51;2.97;;;1.85;;
22429;SDS011;11382;48.086;11.632;2023-04-03T14:16:21;2.30;;;1.40;;
22429;SDS011;11382;48.086;11.632;2023-04-03T14:18:53;4.15;;;1.60;;
22429;SDS011;11382;48.086;11.632;2023-04-03T14:21:21;1.67;;;1.35;;
22429;SDS011;11382;48.086;11.632;2023-04-03T14:23:50;2.85;;;1.73;;
22429;SDS011;11382;48.086;11.632;2023-04-03T14:26:19;2.35;;;1.60;;
22429;SDS011;11382;48.086;11.632;2023-04-03T14:28:49;2.05;;;1.30;;
22429;SDS011;11382;48.086;11.632;2023-04-03T14:31:21;1.92;;;1.40;;
22429;SDS011;11382;48.086;11.632;2023-04-03T14:33:49;2.92;;;1.52;;
22429;SDS011;11382;48.086;11.632;2023-04-03T14:36:18;1.80;;;1.45;;
22429;SDS011;11382;48.086;11.632;2023-04-03T14:38:49;1.42;;;1.33;;
22429;SDS011;11382;48.086;11.632;2023-04-03T14:41:18;2.85;;;1.50;;
22429;SDS011;11382;48.086;11.632;2023-04-03T14:43:47;2.50;;;1.40;;
22429;SDS011;11382;48.086;11.632;2023-04-03T14:46:19;3.72;;;1.98;;
22429;SDS011;11382;48.086;11.632;2023-04-03T14:48:57;4.25;;;1.70;;
22429;SDS011;11382;48.086;11.632;2023-04-03T14:51:26;2.78;;;1.65;;
22429;SDS011;11382;48.086;11.632;2023-04-03T14:53:54;4.80;;;1.60;;
22429;SDS011;11382;48.086;11.632;2023-04-03T14:56:23;4.25;;;1.73;;
22429;SDS011;11382;48.086;11.632;2023-04-03T15:02:42;1.90;;;1.33;;
22429;SDS011;11382;48.086;11.632;2023-04-03T15:05:12;3.28;;;1.80;;
22429;SDS011;11382;48.086;11.632;2023-04-03T15:07:41;3.65;;;2.03;;
22429;SDS011;11382;48.086;11.632;2023-04-03T15:10:16;3.50;;;1.75;;
22429;SDS011;11382;48.086;11.632;2023-04-03T15:15:14;2.50;;;1.23;;
22429;SDS011;11382;48.086;11.632;2023-04-03T15:17:44;2.28;;;1.60;;
22429;SDS011;11382;48.086;11.632;2023-04-03T15:20:15;3.22;;;1.67;;
22429;SDS011;11382;48.086;11.632;2023-04-03T15:22:46;4.15;;;1.60;;
22429;SDS011;11382;48.086;11.632;2023-04-03T15:25:14;4.35;;;1.80;;
22429;SDS011;11382;48.086;11.632;2023-04-03T15:27:42;2.20;;;1.70;;
22429;SDS011;11382;48.086;11.632;2023-04-03T15:30:11;2.17;;;1.65;;
22429;SDS011;11382;48.086;11.632;2023-04-03T15:32:43;2.28;;;1.42;;
22429;SDS011;11382;48.086;11.632;2023-04-03T15:35:12;2.88;;;1.60;;